sensor_id;sensor_type;location;lat;lon;timestamp;temperature;humidity
30889;DHT22;51092;50.874;7.024;2023-07-20T00:00:40;17.30;91.90
30889;DHT22;51092;50.874;7.024;2023-07-20T00:01:42;17.30;92.00
30889;DHT22;51092;50.874;7.024;2023-07-20T00:02:50;17.30;92.10
30889;DHT22;51092;50.874;7.024;2023-07-20T00:03:52;17.40;92.00
30889;DHT22;51092;50.874;7.024;2023-07-20T00:04:56;17.40;91.90
30889;DHT22;51092;50.874;7.024;2023-07-20T00:05:57;17.40;91.90
30889;DHT22;51092;50.874;7.024;2023-07-20T00:06:59;17.40;91.80
30889;DHT22;51092;50.874;7.024;2023-07-20T00:08:01;17.40;91.90
30889;DHT22;51092;50.874;7.024;2023-07-20T00:09:03;17.40;91.90
30889;DHT22;51092;50.874;7.024;2023-07-20T00:10:06;17.40;91.80
30889;DHT22;51092;50.874;7.024;2023-07-20T00:11:08;17.40;91.90
30889;DHT22;51092;50.874;7.024;2023-07-20T00:12:10;17.40;91.80
30889;DHT22;51092;50.874;7.024;2023-07-20T00:13:13;17.50;91.40
30889;DHT22;51092;50.874;7.024;2023-07-20T00:14:14;17.50;91.40
30889;DHT22;51092;50.874;7.024;2023-07-20T00:15:17;17.50;91.10
30889;DHT22;51092;50.874;7.024;2023-07-20T00:16:19;17.50;90.90
30889;DHT22;51092;50.874;7.024;2023-07-20T00:17:22;17.60;90.60
30889;DHT22;51092;50.874;7.024;2023-07-20T00:18:23;17.60;90.30
30889;DHT22;51092;50.874;7.024;2023-07-20T00:19:27;17.60;90.10
30889;DHT22;51092;50.874;7.024;2023-07-20T00:20:28;17.60;89.90
30889;DHT22;51092;50.874;7.024;2023-07-20T00:21:31;17.70;89.70
30889;DHT22;51092;50.874;7.024;2023-07-20T00:22:32;17.70;88.80
30889;DHT22;51092;50.874;7.024;2023-07-20T00:23:34;17.70;88.80
30889;DHT22;51092;50.874;7.024;2023-07-20T00:24:36;17.80;88.20
30889;DHT22;51092;50.874;7.024;2023-07-20T00:25:38;17.70;88.20
30889;DHT22;51092;50.874;7.024;2023-07-20T00:26:40;17.80;87.80
30889;DHT22;51092;50.874;7.024;2023-07-20T00:27:42;17.80;88.10
30889;DHT22;51092;50.874;7.024;2023-07-20T00:28:44;17.90;87.50
30889;DHT22;51092;50.874;7.024;2023-07-20T00:29:46;17.90;87.50
30889;DHT22;51092;50.874;7.024;2023-07-20T00:30:48;17.90;87.30
30889;DHT22;51092;50.874;7.024;2023-07-20T00:31:51;17.90;87.20
30889;DHT22;51092;50.874;7.024;2023-07-20T00:32:53;17.90;87.20
30889;DHT22;51092;50.874;7.024;2023-07-20T00:33:55;17.90;87.60
30889;DHT22;51092;50.874;7.024;2023-07-20T00:34:57;17.90;87.90
30889;DHT22;51092;50.874;7.024;2023-07-20T00:35:59;17.90;88.10
30889;DHT22;51092;50.874;7.024;2023-07-20T00:37:01;18.00;87.90
30889;DHT22;51092;50.874;7.024;2023-07-20T00:38:03;18.00;87.90
30889;DHT22;51092;50.874;7.024;2023-07-20T00:39:05;18.00;87.90
30889;DHT22;51092;50.874;7.024;2023-07-20T00:40:08;18.00;88.10
30889;DHT22;51092;50.874;7.024;2023-07-20T00:41:10;18.00;88.20
30889;DHT22;51092;50.874;7.024;2023-07-20T00:42:12;18.00;88.30
30889;DHT22;51092;50.874;7.024;2023-07-20T00:43:14;18.00;88.30
30889;DHT22;51092;50.874;7.024;2023-07-20T00:44:16;18.00;89.00
30889;DHT22;51092;50.874;7.024;2023-07-20T00:45:18;17.90;90.00
30889;DHT22;51092;50.874;7.024;2023-07-20T00:46:22;17.90;90.20
30889;DHT22;51092;50.874;7.024;2023-07-20T00:47:25;17.90;90.10
30889;DHT22;51092;50.874;7.024;2023-07-20T00:48:28;17.90;90.60
30889;DHT22;51092;50.874;7.024;2023-07-20T00:49:30;17.90;90.90
30889;DHT22;51092;50.874;7.024;2023-07-20T00:50:34;17.90;90.80
30889;DHT22;51092;50.874;7.024;2023-07-20T00:51:36;17.90;91.10
30889;DHT22;51092;50.874;7.024;2023-07-20T00:52:39;17.80;91.50
30889;DHT22;51092;50.874;7.024;2023-07-20T00:53:40;17.80;91.70
30889;DHT22;51092;50.874;7.024;2023-07-20T00:54:44;17.80;91.80
30889;DHT22;51092;50.874;7.024;2023-07-20T00:55:45;17.80;92.00
30889;DHT22;51092;50.874;7.024;2023-07-20T00:56:48;17.70;92.40
30889;DHT22;51092;50.874;7.024;2023-07-20T00:57:50;17.70;92.70
30889;DHT22;51092;50.874;7.024;2023-07-20T00:58:53;17.70;92.90
30889;DHT22;51092;50.874;7.024;2023-07-20T00:59:55;17.70;93.20
30889;DHT22;51092;50.874;7.024;2023-07-20T01:00:57;17.70;93.60
30889;DHT22;51092;50.874;7.024;2023-07-20T01:01:59;17.70;93.90
30889;DHT22;51092;50.874;7.024;2023-07-20T01:03:03;17.60;94.20
30889;DHT22;51092;50.874;7.024;2023-07-20T01:04:04;17.60;94.40
30889;DHT22;51092;50.874;7.024;2023-07-20T01:05:07;17.60;94.40
30889;DHT22;51092;50.874;7.024;2023-07-20T01:06:14;17.60;94.90
30889;DHT22;51092;50.874;7.024;2023-07-20T01:07:24;17.60;94.90
30889;DHT22;51092;50.874;7.024;2023-07-20T01:08:31;17.60;95.00
30889;DHT22;51092;50.874;7.024;2023-07-20T01:09:42;17.60;95.50
30889;DHT22;51092;50.874;7.024;2023-07-20T01:10:55;17.60;96.20
30889;DHT22;51092;50.874;7.024;2023-07-20T01:12:02;17.60;96.60
30889;DHT22;51092;50.874;7.024;2023-07-20T01:13:07;17.60;96.90
30889;DHT22;51092;50.874;7.024;2023-07-20T01:14:12;17.60;98.10
30889;DHT22;51092;50.874;7.024;2023-07-20T01:15:15;17.50;98.20
30889;DHT22;51092;50.874;7.024;2023-07-20T01:16:18;17.60;99.40
30889;DHT22;51092;50.874;7.024;2023-07-20T01:17:19;17.50;99.90
30889;DHT22;51092;50.874;7.024;2023-07-20T01:18:23;17.50;99.90
30889;DHT22;51092;50.874;7.024;2023-07-20T01:19:25;17.50;99.90
30889;DHT22;51092;50.874;7.024;2023-07-20T01:20:28;17.50;99.90
30889;DHT22;51092;50.874;7.024;2023-07-20T01:21:37;17.50;99.90
30889;DHT22;51092;50.874;7.024;2023-07-20T01:23:06;17.40;99.90
30889;DHT22;51092;50.874;7.024;2023-07-20T01:24:48;17.40;99.90
30889;DHT22;51092;50.874;7.024;2023-07-20T01:26:07;17.40;99.90
30889;DHT22;51092;50.874;7.024;2023-07-20T01:27:34;17.40;99.90
30889;DHT22;51092;50.874;7.024;2023-07-20T01:28:48;17.30;99.90
30889;DHT22;51092;50.874;7.024;2023-07-20T01:30:14;17.30;99.90
30889;DHT22;51092;50.874;7.024;2023-07-20T01:31:24;17.30;99.90
30889;DHT22;51092;50.874;7.024;2023-07-20T01:32:27;17.30;99.90
30889;DHT22;51092;50.874;7.024;2023-07-20T01:33:32;17.30;99.90
30889;DHT22;51092;50.874;7.024;2023-07-20T01:34:36;17.30;99.90
30889;DHT22;51092;50.874;7.024;2023-07-20T01:35:37;17.30;99.90
30889;DHT22;51092;50.874;7.024;2023-07-20T01:36:40;17.30;99.90
30889;DHT22;51092;50.874;7.024;2023-07-20T01:37:44;17.30;99.90
30889;DHT22;51092;50.874;7.024;2023-07-20T01:38:46;17.20;99.90
30889;DHT22;51092;50.874;7.024;2023-07-20T01:39:48;17.20;99.90
30889;DHT22;51092;50.874;7.024;2023-07-20T01:40:51;17.20;99.90
30889;DHT22;51092;50.874;7.024;2023-07-20T01:41:53;17.20;99.90
30889;DHT22;51092;50.874;7.024;2023-07-20T01:42:55;17.20;99.90
30889;DHT22;51092;50.874;7.024;2023-07-20T01:43:58;17.20;99.90
30889;DHT22;51092;50.874;7.024;2023-07-20T01:45:00;17.10;99.90
30889;DHT22;51092;50.874;7.024;2023-07-20T01:46:02;17.20;99.90
30889;DHT22;51092;50.874;7.024;2023-07-20T01:47:06;17.20;99.90
30889;DHT22;51092;50.874;7.024;2023-07-20T01:48:08;17.20;99.90
30889;DHT22;51092;50.874;7.024;2023-07-20T01:49:09;17.10;99.90
30889;DHT22;51092;50.874;7.024;2023-07-20T01:50:12;17.10;99.90
30889;DHT22;51092;50.874;7.024;2023-07-20T01:51:13;17.20;99.90
30889;DHT22;51092;50.874;7.024;2023-07-20T01:52:16;17.20;99.90
30889;DHT22;51092;50.874;7.024;2023-07-20T01:53:18;17.10;99.90
30889;DHT22;51092;50.874;7.024;2023-07-20T01:54:20;17.10;99.90
30889;DHT22;51092;50.874;7.024;2023-07-20T01:55:22;17.10;99.90
30889;DHT22;51092;50.874;7.024;2023-07-20T01:56:24;17.10;99.90
30889;DHT22;51092;50.874;7.024;2023-07-20T01:57:26;17.10;99.90
30889;DHT22;51092;50.874;7.024;2023-07-20T01:58:27;17.10;99.90
30889;DHT22;51092;50.874;7.024;2023-07-20T01:59:29;17.10;99.90
30889;DHT22;51092;50.874;7.024;2023-07-20T02:00:32;17.10;99.90
30889;DHT22;51092;50.874;7.024;2023-07-20T02:01:33;17.10;99.90
30889;DHT22;51092;50.874;7.024;2023-07-20T02:02:36;17.10;99.90
30889;DHT22;51092;50.874;7.024;2023-07-20T02:03:39;17.00;99.90
30889;DHT22;51092;50.874;7.024;2023-07-20T02:04:40;17.10;99.90
30889;DHT22;51092;50.874;7.024;2023-07-20T02:05:42;17.00;99.90
30889;DHT22;51092;50.874;7.024;2023-07-20T02:06:44;17.00;99.90
30889;DHT22;51092;50.874;7.024;2023-07-20T02:07:46;17.00;99.90
30889;DHT22;51092;50.874;7.024;2023-07-20T02:08:48;17.00;99.90
30889;DHT22;51092;50.874;7.024;2023-07-20T02:09:51;17.00;99.90
30889;DHT22;51092;50.874;7.024;2023-07-20T02:10:52;17.00;99.90
30889;DHT22;51092;50.874;7.024;2023-07-20T02:11:55;17.00;99.90
30889;DHT22;51092;50.874;7.024;2023-07-20T02:12:56;17.00;99.90
30889;DHT22;51092;50.874;7.024;2023-07-20T02:13:59;17.00;99.90
30889;DHT22;51092;50.874;7.024;2023-07-20T02:15:00;17.00;99.90
30889;DHT22;51092;50.874;7.024;2023-07-20T02:16:03;17.00;99.90
30889;DHT22;51092;50.874;7.024;2023-07-20T02:17:05;17.00;99.90
30889;DHT22;51092;50.874;7.024;2023-07-20T02:18:09;17.00;99.90
30889;DHT22;51092;50.874;7.024;2023-07-20T02:19:10;17.00;99.90
30889;DHT22;51092;50.874;7.024;2023-07-20T02:20:13;16.90;99.90
30889;DHT22;51092;50.874;7.024;2023-07-20T02:21:15;16.90;99.90
30889;DHT22;51092;50.874;7.024;2023-07-20T02:22:17;16.90;99.90
30889;DHT22;51092;50.874;7.024;2023-07-20T02:23:18;16.80;99.90
30889;DHT22;51092;50.874;7.024;2023-07-20T02:24:21;16.80;99.90
30889;DHT22;51092;50.874;7.024;2023-07-20T02:25:22;16.80;99.90
30889;DHT22;51092;50.874;7.024;2023-07-20T02:26:25;16.80;99.90
30889;DHT22;51092;50.874;7.024;2023-07-20T02:27:26;16.70;99.90
30889;DHT22;51092;50.874;7.024;2023-07-20T02:28:29;16.70;99.90
30889;DHT22;51092;50.874;7.024;2023-07-20T02:29:30;16.70;99.90
30889;DHT22;51092;50.874;7.024;2023-07-20T02:30:33;16.70;99.90
30889;DHT22;51092;50.874;7.024;2023-07-20T02:31:34;16.70;99.90
30889;DHT22;51092;50.874;7.024;2023-07-20T02:32:38;16.60;99.90
30889;DHT22;51092;50.874;7.024;2023-07-20T02:33:41;16.60;99.90
30889;DHT22;51092;50.874;7.024;2023-07-20T02:34:44;16.60;99.90
30889;DHT22;51092;50.874;7.024;2023-07-20T02:35:45;16.60;99.90
30889;DHT22;51092;50.874;7.024;2023-07-20T02:36:48;16.60;99.90
30889;DHT22;51092;50.874;7.024;2023-07-20T02:37:48;16.60;99.90
30889;DHT22;51092;50.874;7.024;2023-07-20T02:38:51;16.60;99.90
30889;DHT22;51092;50.874;7.024;2023-07-20T02:39:51;16.60;99.90
30889;DHT22;51092;50.874;7.024;2023-07-20T02:40:53;16.60;99.90
30889;DHT22;51092;50.874;7.024;2023-07-20T02:41:55;16.60;99.90
30889;DHT22;51092;50.874;7.024;2023-07-20T02:42:57;16.60;99.90
30889;DHT22;51092;50.874;7.024;2023-07-20T02:43:59;16.50;99.90
30889;DHT22;51092;50.874;7.024;2023-07-20T02:45:02;16.60;99.90
30889;DHT22;51092;50.874;7.024;2023-07-20T02:46:05;16.50;99.90
30889;DHT22;51092;50.874;7.024;2023-07-20T02:47:07;16.50;99.90
30889;DHT22;51092;50.874;7.024;2023-07-20T02:48:09;16.50;99.90
30889;DHT22;51092;50.874;7.024;2023-07-20T02:49:12;16.50;99.90
30889;DHT22;51092;50.874;7.024;2023-07-20T02:50:14;16.50;99.90
30889;DHT22;51092;50.874;7.024;2023-07-20T02:51:16;16.50;99.90
30889;DHT22;51092;50.874;7.024;2023-07-20T02:52:18;16.40;99.90
30889;DHT22;51092;50.874;7.024;2023-07-20T02:53:20;16.40;99.90
30889;DHT22;51092;50.874;7.024;2023-07-20T02:54:22;16.40;99.90
30889;DHT22;51092;50.874;7.024;2023-07-20T02:55:24;16.40;99.90
30889;DHT22;51092;50.874;7.024;2023-07-20T02:56:26;16.30;99.90
30889;DHT22;51092;50.874;7.024;2023-07-20T02:57:28;16.30;99.90
30889;DHT22;51092;50.874;7.024;2023-07-20T02:58:30;16.40;99.90
30889;DHT22;51092;50.874;7.024;2023-07-20T02:59:32;16.30;99.90
30889;DHT22;51092;50.874;7.024;2023-07-20T03:00:34;16.30;99.90
30889;DHT22;51092;50.874;7.024;2023-07-20T03:01:36;16.40;99.90
30889;DHT22;51092;50.874;7.024;2023-07-20T03:02:38;16.40;99.90
30889;DHT22;51092;50.874;7.024;2023-07-20T03:03:40;16.30;99.90
30889;DHT22;51092;50.874;7.024;2023-07-20T03:04:43;16.40;99.90
30889;DHT22;51092;50.874;7.024;2023-07-20T03:05:45;16.40;99.90
30889;DHT22;51092;50.874;7.024;2023-07-20T03:06:48;16.40;99.90
30889;DHT22;51092;50.874;7.024;2023-07-20T03:07:49;16.30;99.90
30889;DHT22;51092;50.874;7.024;2023-07-20T03:08:52;16.30;99.90
30889;DHT22;51092;50.874;7.024;2023-07-20T03:09:54;16.30;99.90
30889;DHT22;51092;50.874;7.024;2023-07-20T03:10:57;16.30;99.90
30889;DHT22;51092;50.874;7.024;2023-07-20T03:11:58;16.30;99.90
30889;DHT22;51092;50.874;7.024;2023-07-20T03:13:01;16.30;99.90
30889;DHT22;51092;50.874;7.024;2023-07-20T03:14:02;16.30;99.90
30889;DHT22;51092;50.874;7.024;2023-07-20T03:15:06;16.30;99.90
30889;DHT22;51092;50.874;7.024;2023-07-20T03:16:08;16.30;99.90
30889;DHT22;51092;50.874;7.024;2023-07-20T03:17:12;16.20;99.90
30889;DHT22;51092;50.874;7.024;2023-07-20T03:18:13;16.20;99.90
30889;DHT22;51092;50.874;7.024;2023-07-20T03:19:16;16.20;99.90
30889;DHT22;51092;50.874;7.024;2023-07-20T03:20:18;16.20;99.90
30889;DHT22;51092;50.874;7.024;2023-07-20T03:21:20;16.30;99.90
30889;DHT22;51092;50.874;7.024;2023-07-20T03:22:22;16.30;99.90
30889;DHT22;51092;50.874;7.024;2023-07-20T03:23:25;16.20;99.90
30889;DHT22;51092;50.874;7.024;2023-07-20T03:24:28;16.20;99.90
30889;DHT22;51092;50.874;7.024;2023-07-20T03:25:30;16.20;99.90
30889;DHT22;51092;50.874;7.024;2023-07-20T03:26:32;16.20;99.90
30889;DHT22;51092;50.874;7.024;2023-07-20T03:27:34;16.20;99.90
30889;DHT22;51092;50.874;7.024;2023-07-20T03:28:37;16.20;99.90
30889;DHT22;51092;50.874;7.024;2023-07-20T03:29:39;16.20;99.90
30889;DHT22;51092;50.874;7.024;2023-07-20T03:30:41;16.20;99.90
30889;DHT22;51092;50.874;7.024;2023-07-20T03:31:43;16.20;99.90
30889;DHT22;51092;50.874;7.024;2023-07-20T03:32:45;16.20;99.90
30889;DHT22;51092;50.874;7.024;2023-07-20T03:33:47;16.10;99.90
30889;DHT22;51092;50.874;7.024;2023-07-20T03:34:49;16.20;99.90
30889;DHT22;51092;50.874;7.024;2023-07-20T03:35:52;16.10;99.90
30889;DHT22;51092;50.874;7.024;2023-07-20T03:36:55;16.20;99.90
30889;DHT22;51092;50.874;7.024;2023-07-20T03:37:57;16.20;99.90
30889;DHT22;51092;50.874;7.024;2023-07-20T03:38:59;16.20;99.90
30889;DHT22;51092;50.874;7.024;2023-07-20T03:40:01;16.10;99.90
30889;DHT22;51092;50.874;7.024;2023-07-20T03:41:03;16.10;99.90
30889;DHT22;51092;50.874;7.024;2023-07-20T03:42:06;16.20;99.90
30889;DHT22;51092;50.874;7.024;2023-07-20T03:43:08;16.20;99.90
30889;DHT22;51092;50.874;7.024;2023-07-20T03:44:09;16.20;99.90
30889;DHT22;51092;50.874;7.024;2023-07-20T03:45:12;16.20;99.90
30889;DHT22;51092;50.874;7.024;2023-07-20T03:46:13;16.20;99.90
30889;DHT22;51092;50.874;7.024;2023-07-20T03:47:16;16.20;99.90
30889;DHT22;51092;50.874;7.024;2023-07-20T03:48:18;16.20;99.90
30889;DHT22;51092;50.874;7.024;2023-07-20T03:49:21;16.20;99.90
30889;DHT22;51092;50.874;7.024;2023-07-20T03:50:22;16.30;99.90
30889;DHT22;51092;50.874;7.024;2023-07-20T03:51:26;16.30;99.90
30889;DHT22;51092;50.874;7.024;2023-07-20T03:52:28;16.30;99.90
30889;DHT22;51092;50.874;7.024;2023-07-20T03:53:30;16.30;99.90
30889;DHT22;51092;50.874;7.024;2023-07-20T03:54:33;16.40;99.90
30889;DHT22;51092;50.874;7.024;2023-07-20T03:55:35;16.40;99.90
30889;DHT22;51092;50.874;7.024;2023-07-20T03:56:37;16.40;99.90
30889;DHT22;51092;50.874;7.024;2023-07-20T03:57:39;16.40;99.90
30889;DHT22;51092;50.874;7.024;2023-07-20T03:58:41;16.40;99.90
30889;DHT22;51092;50.874;7.024;2023-07-20T03:59:45;16.40;99.90
30889;DHT22;51092;50.874;7.024;2023-07-20T04:00:47;16.40;99.90
30889;DHT22;51092;50.874;7.024;2023-07-20T04:01:51;16.40;99.90
30889;DHT22;51092;50.874;7.024;2023-07-20T04:02:52;16.40;99.90
30889;DHT22;51092;50.874;7.024;2023-07-20T04:03:55;16.40;99.90
30889;DHT22;51092;50.874;7.024;2023-07-20T04:04:57;16.40;99.90
30889;DHT22;51092;50.874;7.024;2023-07-20T04:05:59;16.50;99.90
30889;DHT22;51092;50.874;7.024;2023-07-20T04:07:02;16.40;99.90
30889;DHT22;51092;50.874;7.024;2023-07-20T04:08:05;16.40;99.90
30889;DHT22;51092;50.874;7.024;2023-07-20T04:09:06;16.40;99.90
30889;DHT22;51092;50.874;7.024;2023-07-20T04:10:09;16.40;99.90
30889;DHT22;51092;50.874;7.024;2023-07-20T04:11:11;16.40;99.90
30889;DHT22;51092;50.874;7.024;2023-07-20T04:12:13;16.40;99.90
30889;DHT22;51092;50.874;7.024;2023-07-20T04:13:15;16.40;99.90
30889;DHT22;51092;50.874;7.024;2023-07-20T04:14:17;16.40;99.90
30889;DHT22;51092;50.874;7.024;2023-07-20T04:15:19;16.40;99.90
30889;DHT22;51092;50.874;7.024;2023-07-20T04:16:21;16.40;99.90
30889;DHT22;51092;50.874;7.024;2023-07-20T04:17:23;16.40;99.90
30889;DHT22;51092;50.874;7.024;2023-07-20T04:18:25;16.40;99.90
30889;DHT22;51092;50.874;7.024;2023-07-20T04:19:27;16.50;99.90
30889;DHT22;51092;50.874;7.024;2023-07-20T04:20:29;16.50;99.90
30889;DHT22;51092;50.874;7.024;2023-07-20T04:21:31;16.50;99.90
30889;DHT22;51092;50.874;7.024;2023-07-20T04:22:35;16.50;99.90
30889;DHT22;51092;50.874;7.024;2023-07-20T04:23:36;16.50;99.90
30889;DHT22;51092;50.874;7.024;2023-07-20T04:24:39;16.50;99.90
30889;DHT22;51092;50.874;7.024;2023-07-20T04:25:40;16.50;99.90
30889;DHT22;51092;50.874;7.024;2023-07-20T04:26:43;16.50;99.90
30889;DHT22;51092;50.874;7.024;2023-07-20T04:27:44;16.60;99.90
30889;DHT22;51092;50.874;7.024;2023-07-20T04:28:47;16.50;99.90
30889;DHT22;51092;50.874;7.024;2023-07-20T04:29:50;16.50;99.90
30889;DHT22;51092;50.874;7.024;2023-07-20T04:30:52;16.60;99.90
30889;DHT22;51092;50.874;7.024;2023-07-20T04:31:54;16.60;99.90
30889;DHT22;51092;50.874;7.024;2023-07-20T04:32:56;16.60;99.90
30889;DHT22;51092;50.874;7.024;2023-07-20T04:33:58;16.60;99.90
30889;DHT22;51092;50.874;7.024;2023-07-20T04:35:00;16.60;99.90
30889;DHT22;51092;50.874;7.024;2023-07-20T04:37:12;16.70;99.90
30889;DHT22;51092;50.874;7.024;2023-07-20T04:38:16;16.70;99.90
30889;DHT22;51092;50.874;7.024;2023-07-20T04:39:18;16.70;99.90
30889;DHT22;51092;50.874;7.024;2023-07-20T04:40:21;16.70;99.90
30889;DHT22;51092;50.874;7.024;2023-07-20T04:41:23;16.70;99.90
30889;DHT22;51092;50.874;7.024;2023-07-20T04:42:26;16.70;99.90
30889;DHT22;51092;50.874;7.024;2023-07-20T04:43:29;16.80;99.90
30889;DHT22;51092;50.874;7.024;2023-07-20T04:44:32;16.80;99.90
30889;DHT22;51092;50.874;7.024;2023-07-20T04:45:33;16.80;99.90
30889;DHT22;51092;50.874;7.024;2023-07-20T04:46:35;16.80;99.90
30889;DHT22;51092;50.874;7.024;2023-07-20T04:47:37;16.80;99.90
30889;DHT22;51092;50.874;7.024;2023-07-20T04:48:38;16.80;99.90
30889;DHT22;51092;50.874;7.024;2023-07-20T04:49:41;16.80;99.90
30889;DHT22;51092;50.874;7.024;2023-07-20T04:50:44;16.80;99.90
30889;DHT22;51092;50.874;7.024;2023-07-20T04:51:46;16.80;99.90
30889;DHT22;51092;50.874;7.024;2023-07-20T04:52:47;16.80;99.90
30889;DHT22;51092;50.874;7.024;2023-07-20T04:53:51;16.80;99.90
30889;DHT22;51092;50.874;7.024;2023-07-20T04:54:52;16.80;99.90
30889;DHT22;51092;50.874;7.024;2023-07-20T04:55:54;16.80;99.90
30889;DHT22;51092;50.874;7.024;2023-07-20T04:56:55;16.80;99.90
30889;DHT22;51092;50.874;7.024;2023-07-20T04:57:58;16.80;99.90
30889;DHT22;51092;50.874;7.024;2023-07-20T04:59:00;16.80;99.90
30889;DHT22;51092;50.874;7.024;2023-07-20T05:00:04;16.80;99.90
30889;DHT22;51092;50.874;7.024;2023-07-20T05:01:06;16.80;99.90
30889;DHT22;51092;50.874;7.024;2023-07-20T05:02:08;16.80;99.90
30889;DHT22;51092;50.874;7.024;2023-07-20T05:03:10;16.80;99.90
30889;DHT22;51092;50.874;7.024;2023-07-20T05:04:16;16.80;99.90
30889;DHT22;51092;50.874;7.024;2023-07-20T05:05:19;16.80;99.90
30889;DHT22;51092;50.874;7.024;2023-07-20T05:06:22;16.90;99.90
30889;DHT22;51092;50.874;7.024;2023-07-20T05:07:27;16.90;99.90
30889;DHT22;51092;50.874;7.024;2023-07-20T05:08:29;16.90;99.90
30889;DHT22;51092;50.874;7.024;2023-07-20T05:09:32;16.90;99.90
30889;DHT22;51092;50.874;7.024;2023-07-20T05:10:34;16.90;99.90
30889;DHT22;51092;50.874;7.024;2023-07-20T05:11:36;16.90;99.90
30889;DHT22;51092;50.874;7.024;2023-07-20T05:12:37;16.90;99.90
30889;DHT22;51092;50.874;7.024;2023-07-20T05:13:39;16.90;99.90
30889;DHT22;51092;50.874;7.024;2023-07-20T05:14:41;16.90;99.90
30889;DHT22;51092;50.874;7.024;2023-07-20T05:15:43;17.00;99.90
30889;DHT22;51092;50.874;7.024;2023-07-20T05:16:45;17.00;99.90
30889;DHT22;51092;50.874;7.024;2023-07-20T05:17:47;17.00;99.90
30889;DHT22;51092;50.874;7.024;2023-07-20T05:18:53;17.00;99.90
30889;DHT22;51092;50.874;7.024;2023-07-20T05:19:54;17.10;99.90
30889;DHT22;51092;50.874;7.024;2023-07-20T05:20:57;17.10;99.90
30889;DHT22;51092;50.874;7.024;2023-07-20T05:21:58;17.00;99.90
30889;DHT22;51092;50.874;7.024;2023-07-20T05:23:01;17.00;99.90
30889;DHT22;51092;50.874;7.024;2023-07-20T05:24:03;17.00;99.90
30889;DHT22;51092;50.874;7.024;2023-07-20T05:25:08;17.00;99.90
30889;DHT22;51092;50.874;7.024;2023-07-20T05:26:10;17.10;99.90
30889;DHT22;51092;50.874;7.024;2023-07-20T05:27:13;17.10;99.90
30889;DHT22;51092;50.874;7.024;2023-07-20T05:28:14;17.10;99.90
30889;DHT22;51092;50.874;7.024;2023-07-20T05:29:17;17.10;99.90
30889;DHT22;51092;50.874;7.024;2023-07-20T05:30:18;17.10;99.90
30889;DHT22;51092;50.874;7.024;2023-07-20T05:31:21;17.20;99.90
30889;DHT22;51092;50.874;7.024;2023-07-20T05:32:22;17.30;99.90
30889;DHT22;51092;50.874;7.024;2023-07-20T05:33:24;17.30;99.90
30889;DHT22;51092;50.874;7.024;2023-07-20T05:34:26;17.20;99.90
30889;DHT22;51092;50.874;7.024;2023-07-20T05:35:28;17.20;99.90
30889;DHT22;51092;50.874;7.024;2023-07-20T05:36:29;17.20;99.90
30889;DHT22;51092;50.874;7.024;2023-07-20T05:37:32;17.20;99.90
30889;DHT22;51092;50.874;7.024;2023-07-20T05:38:34;17.20;99.90
30889;DHT22;51092;50.874;7.024;2023-07-20T05:39:36;17.20;99.90
30889;DHT22;51092;50.874;7.024;2023-07-20T05:40:41;17.20;99.90
30889;DHT22;51092;50.874;7.024;2023-07-20T05:41:42;17.20;99.90
30889;DHT22;51092;50.874;7.024;2023-07-20T05:42:45;17.10;99.90
30889;DHT22;51092;50.874;7.024;2023-07-20T05:43:47;17.10;99.90
30889;DHT22;51092;50.874;7.024;2023-07-20T05:44:50;17.10;99.90
30889;DHT22;51092;50.874;7.024;2023-07-20T05:45:54;17.20;99.90
30889;DHT22;51092;50.874;7.024;2023-07-20T05:46:56;17.20;99.90
30889;DHT22;51092;50.874;7.024;2023-07-20T05:47:58;17.20;99.90
30889;DHT22;51092;50.874;7.024;2023-07-20T05:49:00;17.20;99.90
30889;DHT22;51092;50.874;7.024;2023-07-20T05:50:03;17.30;99.90
30889;DHT22;51092;50.874;7.024;2023-07-20T05:51:05;17.30;99.90
30889;DHT22;51092;50.874;7.024;2023-07-20T05:52:07;17.30;99.90
30889;DHT22;51092;50.874;7.024;2023-07-20T05:53:08;17.30;99.90
30889;DHT22;51092;50.874;7.024;2023-07-20T05:54:09;17.40;99.90
30889;DHT22;51092;50.874;7.024;2023-07-20T05:55:11;17.40;99.90
30889;DHT22;51092;50.874;7.024;2023-07-20T05:56:14;17.30;99.90
30889;DHT22;51092;50.874;7.024;2023-07-20T05:57:18;17.40;99.90
30889;DHT22;51092;50.874;7.024;2023-07-20T05:58:19;17.20;99.90
30889;DHT22;51092;50.874;7.024;2023-07-20T05:59:22;17.20;99.90
30889;DHT22;51092;50.874;7.024;2023-07-20T06:00:25;17.20;99.90
30889;DHT22;51092;50.874;7.024;2023-07-20T06:01:27;17.20;99.90
30889;DHT22;51092;50.874;7.024;2023-07-20T06:02:29;17.30;99.90
30889;DHT22;51092;50.874;7.024;2023-07-20T06:03:34;17.20;99.90
30889;DHT22;51092;50.874;7.024;2023-07-20T06:04:35;17.20;99.90
30889;DHT22;51092;50.874;7.024;2023-07-20T06:05:38;17.20;99.90
30889;DHT22;51092;50.874;7.024;2023-07-20T06:06:42;17.20;99.90
30889;DHT22;51092;50.874;7.024;2023-07-20T06:07:45;17.20;99.90
30889;DHT22;51092;50.874;7.024;2023-07-20T06:08:46;17.20;99.90
30889;DHT22;51092;50.874;7.024;2023-07-20T06:09:48;17.30;99.90
30889;DHT22;51092;50.874;7.024;2023-07-20T06:10:50;17.50;99.90
30889;DHT22;51092;50.874;7.024;2023-07-20T06:11:55;17.60;99.90
30889;DHT22;51092;50.874;7.024;2023-07-20T06:12:57;17.70;99.90
30889;DHT22;51092;50.874;7.024;2023-07-20T06:14:00;17.60;99.90
30889;DHT22;51092;50.874;7.024;2023-07-20T06:15:02;17.70;99.90
30889;DHT22;51092;50.874;7.024;2023-07-20T06:16:06;17.70;99.90
30889;DHT22;51092;50.874;7.024;2023-07-20T06:17:07;17.80;99.90
30889;DHT22;51092;50.874;7.024;2023-07-20T06:18:10;17.80;99.90
30889;DHT22;51092;50.874;7.024;2023-07-20T06:19:11;17.80;99.90
30889;DHT22;51092;50.874;7.024;2023-07-20T06:20:14;17.90;99.90
30889;DHT22;51092;50.874;7.024;2023-07-20T06:21:16;17.80;99.90
30889;DHT22;51092;50.874;7.024;2023-07-20T06:22:18;17.70;99.90
30889;DHT22;51092;50.874;7.024;2023-07-20T06:23:20;17.60;99.90
30889;DHT22;51092;50.874;7.024;2023-07-20T06:24:22;17.70;99.90
30889;DHT22;51092;50.874;7.024;2023-07-20T06:25:24;17.70;99.90
30889;DHT22;51092;50.874;7.024;2023-07-20T06:26:26;17.70;99.90
30889;DHT22;51092;50.874;7.024;2023-07-20T06:27:31;17.70;99.90
30889;DHT22;51092;50.874;7.024;2023-07-20T06:28:33;17.80;99.90
30889;DHT22;51092;50.874;7.024;2023-07-20T06:29:35;18.00;99.90
30889;DHT22;51092;50.874;7.024;2023-07-20T06:30:37;17.90;99.90
30889;DHT22;51092;50.874;7.024;2023-07-20T06:31:39;18.00;99.90
30889;DHT22;51092;50.874;7.024;2023-07-20T06:32:41;18.00;99.90
30889;DHT22;51092;50.874;7.024;2023-07-20T06:33:43;17.80;99.90
30889;DHT22;51092;50.874;7.024;2023-07-20T06:34:45;17.80;99.90
30889;DHT22;51092;50.874;7.024;2023-07-20T06:35:47;17.70;99.90
30889;DHT22;51092;50.874;7.024;2023-07-20T06:36:49;17.80;99.90
30889;DHT22;51092;50.874;7.024;2023-07-20T06:37:50;17.90;99.90